Airfield :
LOGIN :

Register | Disclaimer

   EN    FR    IT 

 










Legend :    VFR   Marginal VFR   IFR   Intensive IFR   Very Intensive IFR
Visi :
Ceiling :
>= 8 km
>= 3000ft
5 to 8 km
1000 to 3000 ft
1500m to 5 km
500 to 1000 ft
800 to 1500m
200 to 500 ft
< 800m
< 200 ft
Symbols :   Thunderstorms  Fog  Heavy snow  Heavy precipitations  Wind > 20 kt
SIGMETs :     Misc.  Thunderstorms  Icing  Turbulence  Mountain Waves  Volcanic Ashes







- Airport Elevation : 1197 ft
- IATA code : SPM


ETAD - Spangdahlem Ab

CURRENT METAR :
  • 142056Z AUTO 24003KT 9999 CLR 17/14 A3011 RMK AO2 SLP179 T01690138 52015 $

EXPIRED METARs :
  • 142041Z AUTO 25003KT 9999 SCT075 17/14 A3010 RMK AO2 SLP176 $
  • 142026Z AUTO 26004KT 9999 FEW033 FEW047 BKN075 18/14 A3010 RMK AO2 SLP175 $
  • 142011Z AUTO 26004KT 9999 BKN036 BKN046 BKN075 18/14 A3009 RMK AO2 SLP173 $
  • 141956Z AUTO 26005KT 9999 SCT036 BKN044 BKN080 18/14 A3010 RMK AO2 SLP176 T01830138 $
  • 141926Z AUTO 26005KT 9999 SCT075 19/14 A3009 RMK AO2 SLP173 $
  • 141856Z AUTO 26007KT 9999 OVC075 19/14 A3008 RMK AO2 SLP169 T01930139 $
  • 141826Z AUTO 26009KT 9999 OVC075 20/14 A3006 RMK AO2 SLP162 $

TAF TAF ETAD
Valid from the 14 at 19:00 until the 16 at 01:00 UTC


141903Z 1419/1601 VRB06KT 9999 BKN020 QNH3003INS
BECMG 1423/1424 VRB06KT 6000 BR BKN015 QNH3007INS
TEMPO 1500/1504 SCT008 BKN010
BECMG 1506/1507 23006KT 9999 NSW SCT015 BKN030 QNH3009INS
BECMG 1519/1520 24006KT 9999 FEW040 QNH3007INS TX23/1515Z TN12/1504Z LAST NO AMDS AFT 1420 NEXT 1504
No reported NOTAMs for that airfield.



MET'MAP, your aeronautical weather chart ! - Copyright ORBIFLY December 2007 - Disclaimer

ORBIFLY MET'MAP TEAM :

Programming & Development : Alexandra Zaïnal
Concept & Development : Baudouin d'Aumeries
Co-Development & Prog : Marc-Olivier Méhu
Technical & hardware support : Manuel Goepfert

Contact : metmap@orbifly.com




SOURCES & CREDITS :

   NOAA